createdAt,value
2019-05-02T00:00:20.409Z,36.23
2019-05-02T00:02:48.092Z,35.53
2019-05-02T00:05:15.737Z,36.93
2019-05-02T00:07:43.429Z,36.30
2019-05-02T00:10:13.659Z,36.53
2019-05-02T00:12:41.937Z,34.60
2019-05-02T00:15:10.301Z,35.43
2019-05-02T00:17:37.998Z,35.80
2019-05-02T00:20:07.056Z,34.87
2019-05-02T00:22:34.742Z,34.63
2019-05-02T00:25:02.577Z,35.97
2019-05-02T00:27:32.738Z,32.87
2019-05-02T00:30:00.406Z,33.80
2019-05-02T00:32:28.219Z,32.77
2019-05-02T00:34:55.888Z,34.53
2019-05-02T00:37:24.625Z,35.10
2019-05-02T00:39:53.066Z,35.07
2019-05-02T00:42:22.510Z,33.27
2019-05-02T00:44:50.231Z,34.97
2019-05-02T00:47:25.832Z,35.10
2019-05-02T00:49:54.818Z,33.33
2019-05-02T00:52:22.449Z,35.37
2019-05-02T00:54:50.155Z,34.60
2019-05-02T00:57:20.276Z,34.57
2019-05-02T00:59:47.388Z,35.07
2019-05-02T01:02:35.840Z,34.77
2019-05-02T01:05:04.587Z,32.63
2019-05-02T01:07:32.368Z,33.13
2019-05-02T01:10:00.009Z,35.97
2019-05-02T01:12:27.640Z,34.10
2019-05-02T01:14:55.309Z,33.03
2019-05-02T01:17:26.106Z,34.10
2019-05-02T01:19:52.749Z,33.47
2019-05-02T01:22:20.364Z,33.83
2019-05-02T01:24:47.983Z,33.27
2019-05-02T01:27:25.186Z,34.00
2019-05-02T01:30:01.434Z,34.67
2019-05-02T01:32:38.612Z,34.60
2019-05-02T01:35:41.310Z,33.87
2019-05-02T01:38:26.302Z,32.60
2019-05-02T01:40:54.891Z,32.50
2019-05-02T01:43:25.525Z,34.93
2019-05-02T01:45:53.558Z,34.43
2019-05-02T01:48:21.245Z,33.77
2019-05-02T01:50:48.884Z,32.00
2019-05-02T01:53:16.490Z,33.73
2019-05-02T01:55:44.131Z,34.10
2019-05-02T01:58:14.950Z,33.60
2019-05-02T02:00:44.820Z,32.60
2019-05-02T02:03:10.651Z,32.73
2019-05-02T02:05:38.398Z,32.80
2019-05-02T02:08:06.014Z,35.00
2019-05-02T02:10:33.660Z,32.80
2019-05-02T02:13:04.905Z,33.53
2019-05-02T02:15:30.677Z,32.47
2019-05-02T02:17:58.268Z,33.10
2019-05-02T02:20:28.381Z,32.80
2019-05-02T02:23:14.140Z,34.33
2019-05-02T02:25:47.819Z,34.17
2019-05-02T02:28:15.430Z,33.83
2019-05-02T02:30:43.088Z,31.80
2019-05-02T02:33:10.738Z,33.53
2019-05-02T02:35:49.742Z,33.10
2019-05-02T02:38:07.803Z,32.33
2019-05-02T02:40:35.806Z,33.10
2019-05-02T02:43:12.749Z,31.73
2019-05-02T02:45:51.700Z,32.87
2019-05-02T02:48:16.138Z,33.40
2019-05-02T02:50:45.291Z,32.83
2019-05-02T02:53:18.299Z,32.23
2019-05-02T02:55:44.697Z,31.10
2019-05-02T02:58:12.294Z,31.70
2019-05-02T03:00:41.447Z,32.50
2019-05-02T03:03:09.347Z,31.63
2019-05-02T03:05:37.001Z,32.17
2019-05-02T03:08:05.332Z,32.00
2019-05-02T03:10:39.921Z,32.00
2019-05-02T03:13:42.835Z,32.83
2019-05-02T03:16:07.026Z,31.93
2019-05-02T03:18:39.841Z,33.20
2019-05-02T03:21:01.184Z,30.40
2019-05-02T03:23:29.014Z,32.17
2019-05-02T03:25:56.660Z,32.93
2019-05-02T03:28:24.311Z,33.77
2019-05-02T03:30:51.952Z,34.93
2019-05-02T03:33:19.549Z,36.00
2019-05-02T03:35:49.060Z,37.70
2019-05-02T03:38:16.606Z,36.43
2019-05-02T03:40:44.256Z,36.57
2019-05-02T03:43:12.422Z,37.23
2019-05-02T03:45:42.998Z,37.23
2019-05-02T03:48:09.979Z,37.03
2019-05-02T03:50:37.620Z,37.77
2019-05-02T03:53:05.262Z,37.00
2019-05-02T03:55:34.041Z,36.70
2019-05-02T03:58:12.822Z,37.90
2019-05-02T04:00:31.272Z,36.13
2019-05-02T04:03:02.155Z,36.77
2019-05-02T04:05:33.696Z,37.20
2019-05-02T04:07:58.925Z,35.63
2019-05-02T04:10:44.690Z,36.73
2019-05-02T04:13:12.357Z,36.97
2019-05-02T04:15:39.980Z,38.00
2019-05-02T04:18:08.353Z,38.53
2019-05-02T04:20:37.486Z,40.90
2019-05-02T04:23:05.458Z,38.10
2019-05-02T04:25:34.036Z,41.27
2019-05-02T04:28:05.929Z,40.53
2019-05-02T04:30:32.708Z,40.80
2019-05-02T04:33:00.499Z,42.13
2019-05-02T04:35:28.820Z,42.40
2019-05-02T04:38:01.406Z,42.80
2019-05-02T04:40:28.329Z,42.03
2019-05-02T04:43:05.483Z,41.07
2019-05-02T04:45:35.962Z,42.83
2019-05-02T04:48:00.953Z,38.63
2019-05-02T04:50:25.635Z,39.70
2019-05-02T04:52:54.316Z,38.30
2019-05-02T04:55:29.127Z,37.73
2019-05-02T04:57:51.407Z,39.67
2019-05-02T05:00:21.444Z,38.20
2019-05-02T05:02:52.968Z,39.13
2019-05-02T05:05:25.686Z,39.37
2019-05-02T05:07:49.505Z,40.03
2019-05-02T05:10:18.512Z,39.43
2019-05-02T05:12:48.015Z,38.33
2019-05-02T05:15:33.715Z,39.87
2019-05-02T05:17:45.247Z,41.13
2019-05-02T05:20:15.687Z,41.47
2019-05-02T05:22:44.282Z,39.97
2019-05-02T05:25:17.698Z,40.83
2019-05-02T05:27:47.930Z,40.47
2019-05-02T05:30:18.649Z,39.80
2019-05-02T05:32:45.126Z,41.30
2019-05-02T05:35:13.167Z,40.03
2019-05-02T05:37:43.250Z,40.30
2019-05-02T05:40:10.476Z,38.63
2019-05-02T05:42:38.112Z,39.90
2019-05-02T05:45:09.750Z,39.73
2019-05-02T05:47:35.373Z,42.23
2019-05-02T05:50:03.212Z,40.50
2019-05-02T05:52:33.244Z,42.07
2019-05-02T05:55:00.304Z,39.13
2019-05-02T05:57:28.043Z,41.33
2019-05-02T05:59:58.249Z,38.70
2019-05-02T06:02:25.266Z,39.20
2019-05-02T06:04:55.174Z,39.43
2019-05-02T06:07:22.388Z,38.37
2019-05-02T06:10:02.260Z,38.03
2019-05-02T06:12:30.378Z,37.93
2019-05-02T06:15:01.618Z,38.43
2019-05-02T06:17:28.517Z,36.83
2019-05-02T06:19:55.501Z,37.10
2019-05-02T06:22:24.794Z,37.90
2019-05-02T06:24:52.612Z,36.93
2019-05-02T06:27:20.992Z,35.40
2019-05-02T06:29:51.241Z,34.33
2019-05-02T06:32:20.635Z,35.07
2019-05-02T06:34:48.465Z,34.73
2019-05-02T06:37:16.198Z,33.47
2019-05-02T06:39:43.856Z,32.80
2019-05-02T06:42:11.471Z,28.63
2019-05-02T06:44:39.154Z,28.73
2019-05-02T06:47:06.857Z,27.37
2019-05-02T06:49:34.482Z,27.30
2019-05-02T06:52:02.144Z,27.30
2019-05-02T06:54:29.771Z,27.77
2019-05-02T06:56:57.418Z,27.87
2019-05-02T06:59:25.050Z,26.10
2019-05-02T07:01:57.564Z,26.00
2019-05-02T07:04:23.107Z,26.67
2019-05-02T07:06:58.640Z,25.83
2019-05-02T07:09:21.748Z,23.27
2019-05-02T07:11:57.095Z,26.10
2019-05-02T07:14:23.419Z,25.90
2019-05-02T07:17:00.991Z,24.67
2019-05-02T07:19:40.735Z,24.47
2019-05-02T07:22:08.350Z,23.40
2019-05-02T07:24:35.983Z,25.83
2019-05-02T07:27:03.643Z,28.63
2019-05-02T07:29:31.301Z,28.23
2019-05-02T07:31:59.060Z,28.77
2019-05-02T07:34:26.753Z,31.10
2019-05-02T07:36:54.395Z,29.80
2019-05-02T07:39:22.058Z,31.90
2019-05-02T07:41:49.716Z,31.93
2019-05-02T07:44:17.358Z,33.63
2019-05-02T07:46:51.523Z,33.97
2019-05-02T07:49:14.486Z,33.33
2019-05-02T07:51:42.134Z,35.00
2019-05-02T07:54:09.784Z,35.40
2019-05-02T07:56:37.482Z,33.63
2019-05-02T07:59:05.225Z,32.50
2019-05-02T08:01:32.869Z,33.73
2019-05-02T08:04:04.425Z,32.67
2019-05-02T08:06:35.399Z,34.43
2019-05-02T08:09:01.696Z,33.30
2019-05-02T08:11:32.218Z,34.07
2019-05-02T08:14:00.443Z,36.73
2019-05-02T08:16:28.731Z,35.63
2019-05-02T08:18:56.477Z,35.83
2019-05-02T08:21:27.315Z,36.27
2019-05-02T08:23:57.202Z,37.03
2019-05-02T08:26:23.526Z,36.30
2019-05-02T08:28:58.515Z,37.53
2019-05-02T08:31:26.221Z,38.97
2019-05-02T08:33:53.810Z,39.77
2019-05-02T08:36:21.473Z,40.00
2019-05-02T08:38:53.456Z,39.27
2019-05-02T08:41:19.883Z,40.63
2019-05-02T08:43:48.045Z,42.83
2019-05-02T08:46:15.949Z,44.33
2019-05-02T08:48:43.870Z,43.10
2019-05-02T08:51:11.491Z,43.00
2019-05-02T08:53:39.145Z,41.00
2019-05-02T08:56:06.837Z,40.03
2019-05-02T08:58:34.437Z,40.80
2019-05-02T09:01:02.113Z,41.97
2019-05-02T09:03:35.104Z,40.87
2019-05-02T09:06:05.504Z,43.57
2019-05-02T09:08:28.554Z,40.90
2019-05-02T09:10:56.173Z,42.37
2019-05-02T09:13:29.239Z,43.03
2019-05-02T09:15:54.292Z,42.83
2019-05-02T09:18:25.323Z,43.07
2019-05-02T09:20:55.091Z,42.60
2019-05-02T09:23:22.781Z,43.60
2019-05-02T09:25:51.942Z,39.27
2019-05-02T09:28:23.961Z,40.63
2019-05-02T09:30:49.062Z,40.87
2019-05-02T09:33:16.718Z,41.13
2019-05-02T09:35:44.359Z,42.20
2019-05-02T09:38:12.913Z,41.23
2019-05-02T09:40:42.632Z,38.37
2019-05-02T09:43:12.179Z,40.50
2019-05-02T09:45:43.196Z,39.43
2019-05-02T09:48:09.318Z,40.23
2019-05-02T09:50:38.463Z,41.20
2019-05-02T09:53:06.350Z,43.13
2019-05-02T09:55:33.973Z,41.87
2019-05-02T09:58:02.635Z,40.97
2019-05-02T10:00:42.127Z,41.83
2019-05-02T10:03:11.946Z,40.50
2019-05-02T10:05:39.200Z,41.60
2019-05-02T10:08:10.570Z,42.73
2019-05-02T10:10:37.058Z,43.47
2019-05-02T10:13:05.758Z,42.47
2019-05-02T10:15:33.345Z,41.60
2019-05-02T10:18:08.803Z,43.60
2019-05-02T10:20:31.886Z,40.27
2019-05-02T10:23:02.283Z,40.50
2019-05-02T10:25:37.929Z,41.00
2019-05-02T10:28:01.974Z,39.60
2019-05-02T10:30:35.080Z,40.50
2019-05-02T10:33:02.473Z,41.70
2019-05-02T10:35:39.463Z,37.38
2019-05-02T10:38:02.599Z,38.65
2019-05-02T10:40:32.177Z,41.18
2019-05-02T10:42:59.739Z,39.55
2019-05-02T10:45:27.376Z,41.60
2019-05-02T10:47:55.184Z,39.50
2019-05-02T10:50:29.578Z,39.65
2019-05-02T10:52:57.347Z,39.20
2019-05-02T10:55:25.123Z,40.52
2019-05-02T10:57:52.905Z,40.85
2019-05-02T11:00:23.597Z,41.15
2019-05-02T11:03:09.343Z,40.05
2019-05-02T11:05:37.779Z,38.60
2019-05-02T11:08:06.495Z,37.50
2019-05-02T11:10:34.561Z,38.10
2019-05-02T11:13:33.715Z,37.58
2019-05-02T11:16:36.033Z,40.28
2019-05-02T11:19:06.443Z,37.90
2019-05-02T11:21:34.054Z,39.08
2019-05-02T11:24:02.478Z,35.68
2019-05-02T11:26:32.223Z,37.78
2019-05-02T11:28:59.768Z,39.92
2019-05-02T11:31:27.364Z,34.73
2019-05-02T11:33:55.066Z,35.45
2019-05-02T11:36:22.690Z,37.10
2019-05-02T11:38:59.646Z,38.45
2019-05-02T11:41:19.744Z,36.48
2019-05-02T11:43:47.404Z,37.33
2019-05-02T11:46:15.027Z,34.10
2019-05-02T11:48:54.672Z,34.27
2019-05-02T11:51:16.324Z,32.98
2019-05-02T11:53:42.001Z,33.63
2019-05-02T11:56:11.676Z,33.58
2019-05-02T11:58:41.020Z,32.30
2019-05-02T12:01:09.216Z,32.53
2019-05-02T12:03:49.218Z,31.07
2019-05-02T12:06:19.645Z,31.50
2019-05-02T12:08:49.330Z,30.85
2019-05-02T12:11:17.873Z,28.47
2019-05-02T12:13:47.416Z,28.98
2019-05-02T12:16:15.462Z,27.90
2019-05-02T12:18:43.256Z,27.77
2019-05-02T12:21:11.927Z,28.20
2019-05-02T12:23:41.692Z,27.80
2019-05-02T12:26:09.389Z,28.65
2019-05-02T12:28:37.063Z,26.57
2019-05-02T12:31:07.969Z,25.92
2019-05-02T12:33:38.083Z,26.20
2019-05-02T12:36:07.645Z,25.72
2019-05-02T12:38:35.421Z,24.75
2019-05-02T12:41:03.157Z,25.92
2019-05-02T12:43:31.869Z,26.90
2019-05-02T12:45:59.705Z,24.07
2019-05-02T12:48:27.348Z,24.43
2019-05-02T12:50:54.991Z,24.57
2019-05-02T12:53:22.619Z,23.50
2019-05-02T12:55:52.557Z,25.40
2019-05-02T12:58:22.758Z,25.65
2019-05-02T13:00:50.417Z,25.15
2019-05-02T13:03:52.808Z,24.40
2019-05-02T13:06:21.973Z,25.35
2019-05-02T13:08:52.109Z,26.70
2019-05-02T13:11:36.778Z,24.75
2019-05-02T13:14:02.275Z,25.88
2019-05-02T13:16:29.991Z,26.05
2019-05-02T13:19:04.510Z,24.75
2019-05-02T13:21:41.568Z,25.92
2019-05-02T13:24:23.448Z,27.70
2019-05-02T13:26:53.845Z,27.07
2019-05-02T13:29:20.134Z,26.35
2019-05-02T13:32:01.653Z,25.80
2019-05-02T13:34:53.943Z,24.43
2019-05-02T13:37:22.534Z,26.85
2019-05-02T13:40:17.203Z,27.62
2019-05-02T13:42:45.033Z,26.50
2019-05-02T13:45:36.495Z,26.50
2019-05-02T13:48:04.162Z,29.40
2019-05-02T13:50:31.820Z,33.53
2019-05-02T13:53:08.800Z,37.03
2019-05-02T13:55:42.621Z,38.43
2019-05-02T13:58:11.820Z,41.73
2019-05-02T14:00:44.017Z,42.10
2019-05-02T14:03:11.931Z,47.07
2019-05-02T14:05:48.793Z,50.93
2019-05-02T14:08:22.495Z,48.77
2019-05-02T14:10:53.206Z,51.00
2019-05-02T14:13:22.124Z,52.60
2019-05-02T14:15:49.801Z,54.67
2019-05-02T14:18:23.326Z,57.43
2019-05-02T14:20:46.860Z,59.53
2019-05-02T14:23:14.514Z,57.03
2019-05-02T14:25:42.659Z,58.37
2019-05-02T14:28:12.781Z,58.37
2019-05-02T14:30:43.595Z,57.27
2019-05-02T14:33:15.253Z,57.63
2019-05-02T14:35:53.353Z,54.13
2019-05-02T14:38:22.116Z,55.40
2019-05-02T14:41:12.271Z,53.07
2019-05-02T14:43:49.412Z,54.47
2019-05-02T14:46:18.103Z,52.77
2019-05-02T14:48:46.096Z,52.83
2019-05-02T14:51:16.793Z,54.30
2019-05-02T14:53:43.195Z,53.97
2019-05-02T14:56:16.284Z,52.50
2019-05-02T14:58:43.922Z,53.33
2019-05-02T15:01:16.953Z,53.60
2019-05-02T15:03:42.323Z,52.53
2019-05-02T15:06:11.732Z,50.97
2019-05-02T15:08:41.958Z,48.67
2019-05-02T15:11:08.812Z,47.77
2019-05-02T15:13:40.095Z,45.77
2019-05-02T15:16:10.474Z,46.83
2019-05-02T15:18:37.268Z,47.37
2019-05-02T15:21:12.157Z,47.03
2019-05-02T15:23:34.250Z,46.87
2019-05-02T15:26:02.615Z,45.30
2019-05-02T15:28:37.361Z,43.73
2019-05-02T15:31:05.271Z,43.90
2019-05-02T15:33:35.245Z,46.35
2019-05-02T15:36:07.370Z,47.47
2019-05-02T15:38:37.265Z,42.80
2019-05-02T15:41:05.057Z,46.63
2019-05-02T15:43:32.533Z,48.47
2019-05-02T15:46:01.685Z,42.00
2019-05-02T15:48:29.562Z,43.80
2019-05-02T15:51:03.249Z,34.33
2019-05-02T15:53:39.181Z,28.87
2019-05-02T15:56:15.682Z,27.57
2019-05-02T15:58:37.598Z,29.67
2019-05-02T16:01:41.567Z,30.63
2019-05-02T16:04:08.251Z,32.50
2019-05-02T16:06:35.913Z,34.13
2019-05-02T16:09:05.639Z,32.57
2019-05-02T16:11:33.283Z,32.97
2019-05-02T16:14:02.161Z,35.50
2019-05-02T16:16:31.899Z,36.30
2019-05-02T16:18:59.366Z,37.60
2019-05-02T16:21:38.027Z,38.90
2019-05-02T16:24:23.060Z,39.47
2019-05-02T16:26:53.000Z,41.30
2019-05-02T16:29:26.930Z,44.40
2019-05-02T16:32:03.565Z,50.00
2019-05-02T16:34:35.127Z,47.03
2019-05-02T16:37:13.231Z,51.47
2019-05-02T16:39:42.593Z,47.40
2019-05-02T16:42:12.264Z,50.57
2019-05-02T16:44:39.509Z,50.27
2019-05-02T16:47:07.174Z,48.47
2019-05-02T16:49:34.792Z,46.57
2019-05-02T16:52:07.520Z,44.53
2019-05-02T16:54:34.608Z,45.03
2019-05-02T16:57:01.765Z,44.17
2019-05-02T16:59:29.401Z,45.13
2019-05-02T17:01:59.532Z,43.83
2019-05-02T17:04:31.945Z,42.77
2019-05-02T17:07:05.665Z,46.03
2019-05-02T17:09:42.670Z,45.13
2019-05-02T17:12:11.837Z,42.93
2019-05-02T17:14:43.535Z,40.90
2019-05-02T17:17:12.264Z,40.33
2019-05-02T17:19:40.037Z,39.07
2019-05-02T17:22:07.654Z,40.70
2019-05-02T17:24:35.296Z,43.20
2019-05-02T17:27:03.462Z,43.63
2019-05-02T17:29:31.751Z,45.17
2019-05-02T17:31:59.485Z,43.80
2019-05-02T17:34:30.700Z,46.97
2019-05-02T17:36:59.165Z,45.20
2019-05-02T17:39:26.031Z,45.33
2019-05-02T17:41:53.703Z,43.83
2019-05-02T17:44:24.108Z,44.67
2019-05-02T17:46:57.961Z,47.50
2019-05-02T17:49:23.683Z,44.73
2019-05-02T17:52:11.391Z,44.97
2019-05-02T17:54:37.262Z,45.17
2019-05-02T17:57:04.924Z,46.60
2019-05-02T17:59:34.611Z,48.17
2019-05-02T18:02:06.435Z,45.93
2019-05-02T18:04:32.518Z,48.30
2019-05-02T18:07:00.256Z,47.03
2019-05-02T18:09:31.678Z,45.83
2019-05-02T18:11:57.413Z,45.00
2019-05-02T18:14:25.087Z,47.27
2019-05-02T18:16:55.607Z,49.63
2019-05-02T18:19:24.598Z,49.00
2019-05-02T18:21:52.566Z,49.40
2019-05-02T18:24:22.181Z,50.00
2019-05-02T18:26:51.582Z,50.97
2019-05-02T18:29:19.214Z,50.40
2019-05-02T18:31:47.626Z,47.73
2019-05-02T18:34:23.701Z,49.57
2019-05-02T18:36:44.868Z,52.03
2019-05-02T18:39:12.984Z,51.20
2019-05-02T18:41:42.698Z,50.07
2019-05-02T18:44:11.815Z,51.77
2019-05-02T18:46:41.577Z,49.27
2019-05-02T18:49:09.010Z,48.87
2019-05-02T18:51:36.609Z,48.43
2019-05-02T18:54:07.496Z,48.63
2019-05-02T18:56:41.126Z,49.37
2019-05-02T18:59:03.135Z,49.17
2019-05-02T19:01:32.019Z,50.57
2019-05-02T19:03:59.762Z,50.67
2019-05-02T19:06:27.927Z,51.53
2019-05-02T19:08:58.661Z,49.53
2019-05-02T19:11:26.886Z,51.33
2019-05-02T19:13:55.713Z,51.20
2019-05-02T19:16:27.229Z,53.70
2019-05-02T19:18:54.436Z,54.17
2019-05-02T19:21:26.511Z,56.70
2019-05-02T19:23:51.870Z,58.07
2019-05-02T19:26:21.977Z,57.77
2019-05-02T19:29:13.325Z,58.40
2019-05-02T19:31:48.469Z,58.30
2019-05-02T19:34:16.725Z,56.93
2019-05-02T19:36:45.607Z,57.87
2019-05-02T19:39:13.249Z,53.30
2019-05-02T19:41:43.897Z,53.07
2019-05-02T19:44:10.350Z,51.67
2019-05-02T19:46:38.980Z,51.07
2019-05-02T19:49:11.256Z,45.53
2019-05-02T19:51:36.166Z,45.60
2019-05-02T19:54:06.913Z,44.87
2019-05-02T19:56:43.131Z,45.17
2019-05-02T19:59:03.736Z,44.27
2019-05-02T20:01:31.379Z,42.80
2019-05-02T20:04:02.298Z,37.13
2019-05-02T20:06:28.786Z,33.73
2019-05-02T20:08:59.226Z,28.37
2019-05-02T20:11:28.116Z,20.30
2019-05-02T20:14:00.482Z,12.57
2019-05-02T20:16:53.051Z,10.40
2019-05-02T20:19:25.361Z,11.17
2019-05-02T20:22:06.728Z,11.20
2019-05-02T20:24:58.296Z,8.87
2019-05-02T20:27:23.377Z,9.23
2019-05-02T20:29:52.154Z,8.70
2019-05-02T20:32:21.926Z,9.37
2019-05-02T20:35:01.908Z,9.77
2019-05-02T20:37:29.468Z,10.57
2019-05-02T20:39:57.113Z,10.27
2019-05-02T20:42:24.819Z,10.03
2019-05-02T20:44:52.889Z,10.90
2019-05-02T20:47:22.584Z,11.43
2019-05-02T20:49:51.889Z,11.43
2019-05-02T20:52:21.736Z,10.83
2019-05-02T20:54:49.560Z,10.37
2019-05-02T20:57:17.227Z,10.63
2019-05-02T20:59:44.821Z,11.97
2019-05-02T21:02:12.481Z,11.40
2019-05-02T21:04:40.077Z,11.43
2019-05-02T21:07:27.288Z,11.40
2019-05-02T21:10:02.875Z,10.70
2019-05-02T21:12:30.505Z,10.60
2019-05-02T21:14:58.115Z,10.87
2019-05-02T21:17:27.172Z,10.50
2019-05-02T21:19:54.814Z,10.60
2019-05-02T21:22:24.510Z,10.40
2019-05-02T21:24:52.903Z,10.40
2019-05-02T21:27:21.753Z,10.97
2019-05-02T21:29:49.471Z,10.47
2019-05-02T21:32:17.437Z,10.17
2019-05-02T21:34:45.147Z,9.80
2019-05-02T21:37:13.198Z,9.90
2019-05-02T21:39:42.473Z,11.07
2019-05-02T21:42:10.264Z,12.47
2019-05-02T21:44:37.897Z,12.87
2019-05-02T21:47:05.838Z,15.63
2019-05-02T21:49:52.463Z,16.57
2019-05-02T21:52:28.846Z,19.40
2019-05-02T21:55:03.621Z,20.43
2019-05-02T21:57:32.239Z,20.93
2019-05-02T22:00:02.317Z,20.73
2019-05-02T22:02:29.557Z,20.90
2019-05-02T22:04:57.769Z,20.40
2019-05-02T22:07:26.294Z,19.97
2019-05-02T22:09:54.690Z,21.13
2019-05-02T22:12:22.833Z,20.40
2019-05-02T22:14:50.417Z,20.07
2019-05-02T22:17:18.077Z,19.50
2019-05-02T22:19:45.690Z,19.70
2019-05-02T22:22:13.695Z,19.30
2019-05-02T22:24:42.127Z,18.07
2019-05-02T22:27:09.914Z,19.30
2019-05-02T22:29:37.545Z,18.20
2019-05-02T22:32:05.163Z,17.40
2019-05-02T22:34:32.829Z,17.90
2019-05-02T22:37:01.921Z,18.17
2019-05-02T22:39:47.169Z,17.13
2019-05-02T22:42:17.362Z,17.83
2019-05-02T22:44:45.012Z,17.97
2019-05-02T22:47:14.068Z,17.47
2019-05-02T22:49:42.389Z,18.03
2019-05-02T22:52:10.119Z,17.20
2019-05-02T22:54:37.770Z,17.27
2019-05-02T22:57:05.471Z,17.97
2019-05-02T22:59:33.130Z,17.50
2019-05-02T23:02:02.182Z,18.17
2019-05-02T23:04:29.920Z,18.07
2019-05-02T23:06:57.573Z,18.23
2019-05-02T23:09:25.189Z,18.13
2019-05-02T23:11:52.797Z,17.73
2019-05-02T23:14:22.212Z,18.80
2019-05-02T23:16:49.890Z,18.97
2019-05-02T23:19:17.508Z,18.90
2019-05-02T23:21:45.116Z,18.80
2019-05-02T23:24:20.237Z,18.50
2019-05-02T23:26:57.273Z,17.87
2019-05-02T23:29:24.901Z,18.27
2019-05-02T23:31:52.620Z,17.60
2019-05-02T23:34:23.374Z,17.77
2019-05-02T23:36:49.639Z,18.87
2019-05-02T23:39:17.276Z,18.57
2019-05-02T23:41:44.891Z,17.87
2019-05-02T23:44:12.482Z,16.20
2019-05-02T23:46:42.200Z,16.87
2019-05-02T23:49:12.661Z,17.93
2019-05-02T23:51:38.956Z,16.53
2019-05-02T23:54:06.558Z,16.20
2019-05-02T23:56:35.181Z,14.93
2019-05-02T23:59:02.952Z,15.20
